Terminal Aerodrome Forecast
Issued by NWS

Home | Current Version | Previous Version | Text Only | Print | Product List | Glossary On
Versions: 1 2 3 4 5 6 7 8 9 10 11 12 13
000
FTUS44 KLZK 250520
TAFLLQ
TAF
KLLQ 250520Z 2506/2606 VRB03KT P6SM FEW250
     FM251500 12005KT P6SM SCT050
     FM251900 15009G16KT P6SM VCTS SCT050CB SCT250=

USA.gov is the U.S. government's official web portal to all federal, state and local government web resources and services.